Time;durP1;ratioP1;P1;durP2;ratioP2;P2;SDS_P1;SDS_P2;PMS_P1;PMS_P2;Temp;Humidity;BMP_temperature;BMP_pressure;BME280_temperature;BME280_humidity;BME280_pressure;Samples;Min_cycle;Max_cycle;Signal;HPM_P1;HPM_P2
2021/05/23 00:00:32;;;;;;;2.80;0.90;;;;;;;;;;5101521;28;20634;-77
2021/05/23 00:03:04;;;;;;;1.43;1.00;;;;;;;;;;5089562;28;20577;-78
2021/05/23 00:05:32;;;;;;;1.53;1.00;;;;;;;;;;5085316;28;20195;-77
2021/05/23 00:08:04;;;;;;;1.03;0.73;;;;;;;;;;5089778;28;20193;-78
2021/05/23 00:10:35;;;;;;;2.03;1.00;;;;;;;;;;5082304;28;20225;-79
2021/05/23 00:13:05;;;;;;;0.97;0.87;;;;;;;;;;5087878;28;20432;-78
2021/05/23 00:15:36;;;;;;;0.70;0.70;;;;;;;;;;5077197;28;20245;-78
2021/05/23 00:18:06;;;;;;;0.80;0.80;;;;;;;;;;5100961;28;20209;-78
2021/05/23 00:20:34;;;;;;;0.67;0.67;;;;;;;;;;5094609;28;20217;-79
2021/05/23 00:23:04;;;;;;;1.40;0.70;;;;;;;;;;5090939;28;20204;-79
2021/05/23 00:25:33;;;;;;;0.87;0.70;;;;;;;;;;5098036;28;20208;-77
2021/05/23 00:28:01;;;;;;;0.50;0.50;;;;;;;;;;5094961;28;20210;-77
2021/05/23 00:30:29;;;;;;;0.70;0.60;;;;;;;;;;5090057;28;20222;-79
2021/05/23 00:32:57;;;;;;;1.33;0.60;;;;;;;;;;5091382;28;20551;-78
2021/05/23 00:35:25;;;;;;;1.00;0.60;;;;;;;;;;5080025;28;20225;-78
2021/05/23 00:37:53;;;;;;;1.57;0.63;;;;;;;;;;5106853;28;20582;-78
2021/05/23 00:40:22;;;;;;;1.43;0.60;;;;;;;;;;5099402;28;20229;-78
2021/05/23 00:42:51;;;;;;;0.60;0.50;;;;;;;;;;5088787;28;20208;-79
2021/05/23 00:45:19;;;;;;;0.53;0.50;;;;;;;;;;5089509;28;20217;-78
2021/05/23 00:47:47;;;;;;;0.70;0.70;;;;;;;;;;5075316;28;20198;-78
2021/05/23 00:50:19;;;;;;;1.43;0.60;;;;;;;;;;5089985;28;20232;-77
2021/05/23 00:52:47;;;;;;;0.60;0.60;;;;;;;;;;5100851;28;20208;-78
2021/05/23 00:55:15;;;;;;;1.33;0.67;;;;;;;;;;5082901;28;20233;-79
2021/05/23 00:57:47;;;;;;;2.43;0.63;;;;;;;;;;5089404;28;20206;-80
2021/05/23 01:01:08;;;;;;;0.50;0.50;;;;;;;;;;5088246;28;20570;-79
2021/05/23 01:03:53;;;;;;;0.70;0.70;;;;;;;;;;5084619;28;20620;-78
2021/05/23 01:06:21;;;;;;;0.60;0.60;;;;;;;;;;5084381;28;20199;-78
2021/05/23 01:08:50;;;;;;;1.67;0.60;;;;;;;;;;5059449;28;20218;-78
2021/05/23 01:11:57;;;;;;;0.43;0.43;;;;;;;;;;5058183;28;20202;-78
2021/05/23 01:14:48;;;;;;;1.27;0.90;;;;;;;;;;5003245;28;20233;-78
2021/05/23 01:17:18;;;;;;;0.70;0.70;;;;;;;;;;5081540;28;20210;-79
2021/05/23 01:20:25;;;;;;;0.93;0.50;;;;;;;;;;5085344;28;20609;-79
2021/05/23 01:23:27;;;;;;;1.27;0.77;;;;;;;;;;5049200;28;20683;-79
2021/05/23 01:26:04;;;;;;;0.90;0.60;;;;;;;;;;5068275;28;20203;-79
2021/05/23 01:28:35;;;;;;;0.50;0.50;;;;;;;;;;5076241;28;20202;-79
2021/05/23 01:31:07;;;;;;;1.00;0.60;;;;;;;;;;5056636;28;20218;-80
2021/05/23 01:33:35;;;;;;;1.37;0.70;;;;;;;;;;5086888;28;20221;-79
2021/05/23 01:36:05;;;;;;;0.67;0.60;;;;;;;;;;5067977;28;20233;-79
2021/05/23 01:38:33;;;;;;;1.73;1.43;;;;;;;;;;5075322;28;20215;-78
2021/05/23 01:41:06;;;;;;;0.80;0.60;;;;;;;;;;5079839;28;20911;-79
2021/05/23 01:43:35;;;;;;;1.10;0.80;;;;;;;;;;5061065;28;20698;-79
2021/05/23 01:46:04;;;;;;;0.60;0.50;;;;;;;;;;5076952;28;20229;-78
2021/05/23 01:48:33;;;;;;;0.50;0.50;;;;;;;;;;5075375;28;20218;-78
2021/05/23 01:51:01;;;;;;;0.50;0.50;;;;;;;;;;5056919;28;20199;-79
2021/05/23 01:53:29;;;;;;;0.50;0.50;;;;;;;;;;5058573;28;20209;-78
2021/05/23 01:55:58;;;;;;;2.27;0.93;;;;;;;;;;5059938;28;20719;-78
2021/05/23 01:58:27;;;;;;;0.73;0.70;;;;;;;;;;5078333;28;20206;-78
2021/05/23 02:00:55;;;;;;;0.50;0.50;;;;;;;;;;5075805;28;20210;-78
2021/05/23 02:03:24;;;;;;;1.37;0.70;;;;;;;;;;5079596;28;20206;-78
2021/05/23 02:05:54;;;;;;;1.03;0.67;;;;;;;;;;5077486;28;20209;-79
2021/05/23 02:08:24;;;;;;;1.27;0.53;;;;;;;;;;5061710;28;20746;-78
2021/05/23 02:10:53;;;;;;;1.73;0.60;;;;;;;;;;5075719;28;20222;-78
2021/05/23 02:13:22;;;;;;;0.87;0.60;;;;;;;;;;5061531;28;20199;-78
2021/05/23 02:15:51;;;;;;;0.80;0.60;;;;;;;;;;5074372;28;20219;-79
2021/05/23 02:18:19;;;;;;;1.67;0.60;;;;;;;;;;5073546;28;20800;-79
2021/05/23 02:20:47;;;;;;;2.80;0.70;;;;;;;;;;5070904;28;20313;-79
2021/05/23 02:23:17;;;;;;;1.30;0.70;;;;;;;;;;5079540;28;20276;-79
2021/05/23 02:25:47;;;;;;;3.27;0.70;;;;;;;;;;5065479;28;20213;-79
2021/05/23 02:28:15;;;;;;;1.50;1.00;;;;;;;;;;5073590;28;20207;-79
2021/05/23 02:30:45;;;;;;;1.10;0.80;;;;;;;;;;5081246;28;20234;-79
2021/05/23 02:33:15;;;;;;;2.80;0.80;;;;;;;;;;5079161;28;20216;-78
2021/05/23 02:35:45;;;;;;;1.97;0.80;;;;;;;;;;5056172;28;20234;-79
2021/05/23 02:38:15;;;;;;;2.50;0.93;;;;;;;;;;5081430;28;20202;-79
2021/05/23 02:40:43;;;;;;;1.57;0.70;;;;;;;;;;5060235;28;20223;-80
2021/05/23 02:43:12;;;;;;;2.33;0.80;;;;;;;;;;5075986;28;20691;-79
2021/05/23 02:45:42;;;;;;;1.33;0.70;;;;;;;;;;5062109;28;20210;-79
2021/05/23 02:48:11;;;;;;;0.93;0.60;;;;;;;;;;5069281;28;20202;-83
2021/05/23 02:50:41;;;;;;;1.57;0.60;;;;;;;;;;5073492;28;20281;-79
2021/05/23 02:53:10;;;;;;;1.17;0.70;;;;;;;;;;5079614;28;20217;-79
2021/05/23 02:55:40;;;;;;;1.70;1.00;;;;;;;;;;5084471;28;20699;-79
2021/05/23 02:58:09;;;;;;;0.70;0.70;;;;;;;;;;5056970;28;20207;-79
2021/05/23 03:00:37;;;;;;;1.30;0.70;;;;;;;;;;5094057;28;20845;-80
2021/05/23 03:03:06;;;;;;;2.70;1.00;;;;;;;;;;5094340;28;20214;-80
2021/05/23 03:05:34;;;;;;;1.20;0.77;;;;;;;;;;5059711;28;20574;-80
2021/05/23 03:08:03;;;;;;;2.83;1.10;;;;;;;;;;5093103;28;20557;-81
2021/05/23 03:10:33;;;;;;;4.07;0.90;;;;;;;;;;5087755;28;20240;-80
2021/05/23 03:13:02;;;;;;;2.10;1.13;;;;;;;;;;5078062;28;20203;-79
2021/05/23 03:15:32;;;;;;;1.40;0.70;;;;;;;;;;5075804;28;20218;-80
2021/05/23 03:18:00;;;;;;;1.90;0.90;;;;;;;;;;5061693;28;20214;-79
2021/05/23 03:20:28;;;;;;;4.83;1.23;;;;;;;;;;5074472;28;20238;-79
2021/05/23 03:22:58;;;;;;;2.07;0.83;;;;;;;;;;5063593;28;20221;-79
2021/05/23 03:25:28;;;;;;;2.23;0.87;;;;;;;;;;5077761;28;20203;-79
2021/05/23 03:27:56;;;;;;;2.03;0.90;;;;;;;;;;5077480;28;20206;-80
2021/05/23 03:30:27;;;;;;;1.83;0.70;;;;;;;;;;5075144;28;20237;-79
2021/05/23 03:32:55;;;;;;;2.97;0.80;;;;;;;;;;5078682;28;20201;-79
2021/05/23 03:35:23;;;;;;;1.13;0.77;;;;;;;;;;5056311;28;20230;-80
2021/05/23 03:37:52;;;;;;;1.87;0.90;;;;;;;;;;5075963;28;20226;-79
2021/05/23 03:40:21;;;;;;;0.87;0.73;;;;;;;;;;5073330;28;20237;-80
2021/05/23 03:42:50;;;;;;;0.87;0.70;;;;;;;;;;5062041;28;20295;-80
2021/05/23 03:45:21;;;;;;;1.43;0.60;;;;;;;;;;5071885;28;20212;-80
2021/05/23 03:47:50;;;;;;;0.60;0.60;;;;;;;;;;5079684;28;20202;-80
2021/05/23 03:50:20;;;;;;;0.60;0.60;;;;;;;;;;5077492;28;20238;-80
2021/05/23 03:52:49;;;;;;;0.90;0.50;;;;;;;;;;5078713;28;20210;-81
2021/05/23 03:55:18;;;;;;;1.17;0.50;;;;;;;;;;5067106;28;20198;-79
2021/05/23 03:57:47;;;;;;;1.10;0.50;;;;;;;;;;5099425;28;20203;-80
2021/05/23 04:00:17;;;;;;;0.80;0.70;;;;;;;;;;5052089;28;20222;-79
2021/05/23 04:02:48;;;;;;;1.50;0.63;;;;;;;;;;5078494;28;20229;-79
2021/05/23 04:05:17;;;;;;;0.50;0.50;;;;;;;;;;5063233;28;20450;-82
2021/05/23 04:07:46;;;;;;;0.50;0.50;;;;;;;;;;5074936;28;20210;-81
2021/05/23 04:10:16;;;;;;;0.77;0.50;;;;;;;;;;5081424;28;20234;-80
2021/05/23 04:12:46;;;;;;;0.70;0.60;;;;;;;;;;5062076;28;20198;-80
2021/05/23 04:15:18;;;;;;;0.50;0.50;;;;;;;;;;5057414;28;20209;-80
2021/05/23 04:17:47;;;;;;;2.23;0.60;;;;;;;;;;5060745;28;20213;-82
2021/05/23 04:20:17;;;;;;;1.47;0.70;;;;;;;;;;5063272;28;20230;-80
2021/05/23 04:22:46;;;;;;;0.70;0.60;;;;;;;;;;5075794;28;20214;-81
2021/05/23 04:25:15;;;;;;;1.73;0.60;;;;;;;;;;5082071;28;20222;-81
2021/05/23 04:27:45;;;;;;;0.70;0.60;;;;;;;;;;5058046;28;20210;-80
2021/05/23 04:30:14;;;;;;;1.10;0.57;;;;;;;;;;5070601;28;20235;-82
2021/05/23 04:32:43;;;;;;;1.07;0.60;;;;;;;;;;5056344;28;20206;-83
2021/05/23 04:35:12;;;;;;;1.10;0.70;;;;;;;;;;5097458;28;20210;-82
2021/05/23 04:37:40;;;;;;;1.40;0.63;;;;;;;;;;5072409;28;20230;-80
2021/05/23 04:40:08;;;;;;;0.97;0.77;;;;;;;;;;5081903;28;20621;-80
2021/05/23 04:42:36;;;;;;;0.70;0.50;;;;;;;;;;5082664;28;20194;-80
2021/05/23 04:45:25;;;;;;;0.93;0.60;;;;;;;;;;5102533;28;20202;-80
2021/05/23 04:47:54;;;;;;;0.70;0.70;;;;;;;;;;5078709;28;20210;-81
2021/05/23 04:50:24;;;;;;;0.83;0.53;;;;;;;;;;5077982;28;20222;-82
2021/05/23 04:52:52;;;;;;;1.17;0.90;;;;;;;;;;5085372;28;20198;-80
2021/05/23 04:55:20;;;;;;;0.80;0.70;;;;;;;;;;5104911;27;20222;-80
2021/05/23 04:57:49;;;;;;;1.27;0.70;;;;;;;;;;5088523;28;20218;-82
2021/05/23 05:00:18;;;;;;;0.60;0.60;;;;;;;;;;5087638;28;20730;-78
2021/05/23 05:02:46;;;;;;;0.90;0.60;;;;;;;;;;5090710;28;20206;-80
2021/05/23 05:05:15;;;;;;;1.10;0.50;;;;;;;;;;5091828;28;20199;-80
2021/05/23 05:07:43;;;;;;;0.93;0.63;;;;;;;;;;5089530;28;20210;-81
2021/05/23 05:10:12;;;;;;;0.97;0.60;;;;;;;;;;5084685;28;20243;-83
2021/05/23 05:12:40;;;;;;;2.13;0.60;;;;;;;;;;5071572;28;20199;-82
2021/05/23 05:15:09;;;;;;;1.73;0.50;;;;;;;;;;5079914;28;20217;-81
2021/05/23 05:17:38;;;;;;;0.63;0.60;;;;;;;;;;5084897;28;20722;-80
2021/05/23 05:20:08;;;;;;;1.60;0.83;;;;;;;;;;5062846;28;20600;-82
2021/05/23 05:22:37;;;;;;;1.37;0.73;;;;;;;;;;5066106;28;20203;-80
2021/05/23 05:25:06;;;;;;;0.87;0.50;;;;;;;;;;5085544;28;20217;-80
2021/05/23 05:27:35;;;;;;;0.70;0.63;;;;;;;;;;5085552;28;20592;-80
2021/05/23 05:30:04;;;;;;;0.50;0.50;;;;;;;;;;5088414;28;20214;-79
2021/05/23 05:32:32;;;;;;;0.63;0.50;;;;;;;;;;5088892;28;20206;-78
2021/05/23 05:35:00;;;;;;;0.73;0.63;;;;;;;;;;5107748;28;20191;-78
2021/05/23 05:37:29;;;;;;;1.20;0.60;;;;;;;;;;5079641;28;20222;-78
2021/05/23 05:39:58;;;;;;;1.60;0.90;;;;;;;;;;5083477;28;20230;-78
2021/05/23 05:42:26;;;;;;;1.37;0.70;;;;;;;;;;5074692;28;20214;-78
2021/05/23 05:44:54;;;;;;;0.80;0.60;;;;;;;;;;5080454;28;20217;-78
2021/05/23 05:47:22;;;;;;;1.03;0.60;;;;;;;;;;5060204;28;20202;-79
2021/05/23 05:49:50;;;;;;;0.70;0.70;;;;;;;;;;5082406;28;20578;-77
2021/05/23 05:52:19;;;;;;;1.03;0.63;;;;;;;;;;5075085;28;20210;-78
2021/05/23 05:54:47;;;;;;;0.40;0.40;;;;;;;;;;5067043;28;20218;-78
2021/05/23 05:57:16;;;;;;;0.60;0.53;;;;;;;;;;5058550;28;20215;-78
2021/05/23 05:59:45;;;;;;;1.53;0.60;;;;;;;;;;5073266;28;20227;-77
2021/05/23 06:02:14;;;;;;;0.60;0.60;;;;;;;;;;5076883;28;20476;-78
2021/05/23 06:04:42;;;;;;;2.20;0.60;;;;;;;;;;5067771;28;20198;-79
2021/05/23 06:07:10;;;;;;;1.47;0.80;;;;;;;;;;5077520;28;20199;-78
2021/05/23 06:09:38;;;;;;;1.17;0.70;;;;;;;;;;5070005;28;20230;-78
2021/05/23 06:12:07;;;;;;;0.60;0.60;;;;;;;;;;5082160;28;20596;-78
2021/05/23 06:14:36;;;;;;;0.70;0.60;;;;;;;;;;5090428;28;20206;-78
2021/05/23 06:17:04;;;;;;;3.10;0.73;;;;;;;;;;5082562;28;20603;-78
2021/05/23 06:19:32;;;;;;;0.73;0.60;;;;;;;;;;5082395;28;20458;-78
2021/05/23 06:22:00;;;;;;;0.87;0.80;;;;;;;;;;5058617;28;20213;-77
2021/05/23 06:24:28;;;;;;;0.70;0.70;;;;;;;;;;5084725;28;20214;-79
2021/05/23 06:26:57;;;;;;;0.97;0.60;;;;;;;;;;5071527;28;20206;-78
2021/05/23 06:29:25;;;;;;;2.00;0.63;;;;;;;;;;5071796;28;20249;-79
2021/05/23 06:31:53;;;;;;;0.50;0.50;;;;;;;;;;5086868;28;20198;-78
2021/05/23 06:34:22;;;;;;;0.97;0.60;;;;;;;;;;5085882;28;20234;-79
2021/05/23 06:36:49;;;;;;;0.77;0.50;;;;;;;;;;5085358;28;20549;-78
2021/05/23 06:39:18;;;;;;;0.50;0.50;;;;;;;;;;5100992;28;20600;-78
2021/05/23 06:41:45;;;;;;;0.80;0.80;;;;;;;;;;5083403;28;20567;-79
2021/05/23 06:44:15;;;;;;;0.70;0.40;;;;;;;;;;5082003;28;20187;-78
2021/05/23 06:46:43;;;;;;;0.77;0.60;;;;;;;;;;5069134;28;20205;-77
2021/05/23 06:49:12;;;;;;;0.50;0.50;;;;;;;;;;5055757;28;20233;-77
2021/05/23 06:51:40;;;;;;;0.40;0.40;;;;;;;;;;5074449;28;20203;-80
2021/05/23 06:54:10;;;;;;;0.60;0.60;;;;;;;;;;5075455;28;20214;-77
2021/05/23 06:56:38;;;;;;;0.60;0.60;;;;;;;;;;5071076;28;20691;-78
2021/05/23 06:59:06;;;;;;;1.90;0.50;;;;;;;;;;5060867;28;20236;-78
2021/05/23 07:01:34;;;;;;;0.70;0.70;;;;;;;;;;5088735;28;20202;-78
2021/05/23 07:04:02;;;;;;;1.87;0.60;;;;;;;;;;5074770;28;20218;-79
2021/05/23 07:06:31;;;;;;;1.73;0.77;;;;;;;;;;5083697;28;20205;-81
2021/05/23 07:08:59;;;;;;;3.80;1.10;;;;;;;;;;5084237;28;20229;-78
2021/05/23 07:11:28;;;;;;;0.53;0.50;;;;;;;;;;5076607;28;20210;-78
2021/05/23 07:13:56;;;;;;;2.83;0.80;;;;;;;;;;5071306;28;20237;-78
2021/05/23 07:16:24;;;;;;;0.70;0.60;;;;;;;;;;5061320;28;20198;-78
2021/05/23 07:18:52;;;;;;;0.87;0.70;;;;;;;;;;5075258;28;20221;-78
2021/05/23 07:21:20;;;;;;;1.43;0.53;;;;;;;;;;5060983;28;20210;-79
2021/05/23 07:23:49;;;;;;;1.30;0.60;;;;;;;;;;5076538;28;20695;-78
2021/05/23 07:26:18;;;;;;;0.50;0.50;;;;;;;;;;5059677;28;20209;-79
2021/05/23 07:28:46;;;;;;;0.80;0.50;;;;;;;;;;5067761;28;20196;-79
2021/05/23 07:31:14;;;;;;;1.80;0.63;;;;;;;;;;5068403;28;21471;-79
2021/05/23 07:33:42;;;;;;;0.90;0.50;;;;;;;;;;5046922;28;20206;-78
2021/05/23 07:36:11;;;;;;;0.50;0.50;;;;;;;;;;5091007;28;20214;-78
2021/05/23 07:38:41;;;;;;;1.10;0.50;;;;;;;;;;5067399;28;20592;-78
2021/05/23 07:41:09;;;;;;;0.40;0.40;;;;;;;;;;5072079;28;20221;-78
2021/05/23 07:43:39;;;;;;;0.80;0.50;;;;;;;;;;5077319;28;20206;-78
2021/05/23 07:46:07;;;;;;;0.40;0.40;;;;;;;;;;5078198;28;20198;-77
2021/05/23 07:48:35;;;;;;;0.40;0.40;;;;;;;;;;5045919;28;20287;-77
2021/05/23 07:51:03;;;;;;;2.40;0.70;;;;;;;;;;5056200;28;20569;-82
2021/05/23 07:53:31;;;;;;;0.77;0.60;;;;;;;;;;5074110;28;20217;-77
2021/05/23 07:56:00;;;;;;;0.60;0.60;;;;;;;;;;5065647;28;20225;-77
2021/05/23 07:58:29;;;;;;;0.77;0.60;;;;;;;;;;5064897;28;20218;-77
2021/05/23 08:00:57;;;;;;;1.33;0.50;;;;;;;;;;5075054;28;20194;-77
2021/05/23 08:03:27;;;;;;;2.07;0.70;;;;;;;;;;5077214;28;20210;-77
2021/05/23 08:05:55;;;;;;;1.70;0.60;;;;;;;;;;5067211;28;20213;-78
2021/05/23 08:08:23;;;;;;;1.30;0.67;;;;;;;;;;5076744;28;20194;-77
2021/05/23 08:10:52;;;;;;;0.50;0.50;;;;;;;;;;5063172;28;20186;-77
2021/05/23 08:13:20;;;;;;;0.70;0.60;;;;;;;;;;5063884;28;20664;-78
2021/05/23 08:15:49;;;;;;;0.83;0.60;;;;;;;;;;5068410;28;20206;-77
2021/05/23 08:18:18;;;;;;;0.87;0.87;;;;;;;;;;5067754;28;20226;-77
2021/05/23 08:20:54;;;;;;;0.60;0.60;;;;;;;;;;5082559;28;20222;-77
2021/05/23 08:23:24;;;;;;;1.10;0.60;;;;;;;;;;5090402;28;20205;-77
2021/05/23 08:25:52;;;;;;;1.10;0.57;;;;;;;;;;5088796;28;20205;-76
2021/05/23 08:28:21;;;;;;;1.73;0.97;;;;;;;;;;5089120;28;20206;-77
2021/05/23 08:30:50;;;;;;;1.77;0.63;;;;;;;;;;5065634;28;20224;-77
2021/05/23 08:33:19;;;;;;;0.67;0.60;;;;;;;;;;5061587;28;20206;-77
2021/05/23 08:35:47;;;;;;;2.33;0.80;;;;;;;;;;5082647;28;20585;-77
2021/05/23 08:38:15;;;;;;;1.17;0.50;;;;;;;;;;5084202;28;20222;-77
2021/05/23 08:40:43;;;;;;;0.70;0.60;;;;;;;;;;5080929;28;20594;-77
2021/05/23 08:43:12;;;;;;;1.13;0.63;;;;;;;;;;5083337;28;20202;-76
2021/05/23 08:45:40;;;;;;;0.60;0.60;;;;;;;;;;5085211;28;20209;-77
2021/05/23 08:48:09;;;;;;;0.57;0.57;;;;;;;;;;5057303;28;20206;-76
2021/05/23 08:50:37;;;;;;;0.63;0.60;;;;;;;;;;5081562;28;20222;-77
2021/05/23 08:53:05;;;;;;;1.30;0.67;;;;;;;;;;5070107;28;20202;-76
2021/05/23 08:55:35;;;;;;;2.50;0.60;;;;;;;;;;5087679;28;20202;-76
2021/05/23 08:58:03;;;;;;;1.07;0.60;;;;;;;;;;5085056;28;20207;-76
2021/05/23 09:00:32;;;;;;;0.73;0.60;;;;;;;;;;5087860;28;20740;-77
2021/05/23 09:03:01;;;;;;;0.70;0.70;;;;;;;;;;5068574;28;20209;-76
2021/05/23 09:05:35;;;;;;;0.80;0.77;;;;;;;;;;5080588;28;20210;-76
2021/05/23 09:08:07;;;;;;;0.67;0.67;;;;;;;;;;5091789;28;20201;-76
2021/05/23 09:10:37;;;;;;;1.00;0.70;;;;;;;;;;5085519;28;20612;-76
2021/05/23 09:13:05;;;;;;;0.70;0.70;;;;;;;;;;5088090;28;20218;-76
2021/05/23 09:15:35;;;;;;;0.70;0.60;;;;;;;;;;5066920;28;20202;-77
2021/05/23 09:18:06;;;;;;;1.37;0.80;;;;;;;;;;5064233;28;20579;-76
2021/05/23 09:20:37;;;;;;;2.63;0.70;;;;;;;;;;5079821;28;20234;-76
2021/05/23 09:23:11;;;;;;;2.40;0.60;;;;;;;;;;5063498;28;20199;-77
2021/05/23 09:25:39;;;;;;;0.50;0.50;;;;;;;;;;5083216;28;20202;-78
2021/05/23 09:28:08;;;;;;;1.10;0.93;;;;;;;;;;5089253;28;20213;-78
2021/05/23 09:30:39;;;;;;;2.17;0.60;;;;;;;;;;5082237;28;20655;-76
2021/05/23 09:33:08;;;;;;;1.07;0.80;;;;;;;;;;5079644;28;20206;-78
2021/05/23 09:35:42;;;;;;;2.10;0.70;;;;;;;;;;5087000;28;20580;-79
2021/05/23 09:38:11;;;;;;;1.03;0.60;;;;;;;;;;5088470;28;20202;-78
2021/05/23 09:40:40;;;;;;;1.13;0.70;;;;;;;;;;5081501;28;20222;-79
2021/05/23 09:43:09;;;;;;;1.63;0.80;;;;;;;;;;5073510;28;20214;-79
2021/05/23 09:45:40;;;;;;;0.77;0.77;;;;;;;;;;5088670;28;20205;-78
2021/05/23 09:48:16;;;;;;;0.60;0.60;;;;;;;;;;5079147;28;20199;-78
2021/05/23 09:50:47;;;;;;;0.97;0.60;;;;;;;;;;5072031;28;20237;-79
2021/05/23 09:53:20;;;;;;;0.90;0.60;;;;;;;;;;5085631;28;20219;-78
2021/05/23 09:55:56;;;;;;;2.37;0.57;;;;;;;;;;5075601;28;20195;-79
2021/05/23 09:58:26;;;;;;;1.27;0.70;;;;;;;;;;5056464;28;20217;-78
2021/05/23 10:00:55;;;;;;;0.97;0.50;;;;;;;;;;5073412;28;20210;-78
2021/05/23 10:03:25;;;;;;;0.50;0.40;;;;;;;;;;5080492;28;20320;-79
2021/05/23 10:05:54;;;;;;;0.80;0.53;;;;;;;;;;5086313;28;20207;-78
2021/05/23 10:08:23;;;;;;;0.57;0.57;;;;;;;;;;5064619;28;20210;-79
2021/05/23 10:10:51;;;;;;;0.90;0.70;;;;;;;;;;5081861;28;20225;-79
2021/05/23 10:13:20;;;;;;;1.40;0.60;;;;;;;;;;5064838;28;20473;-79
2021/05/23 10:15:49;;;;;;;1.47;0.70;;;;;;;;;;5074320;28;20218;-79
2021/05/23 10:18:17;;;;;;;1.97;0.90;;;;;;;;;;5062346;28;20210;-79
2021/05/23 10:20:45;;;;;;;1.93;0.70;;;;;;;;;;5058070;28;20589;-78
2021/05/23 10:23:16;;;;;;;0.93;0.60;;;;;;;;;;5063647;28;20248;-78
2021/05/23 10:25:47;;;;;;;1.03;0.80;;;;;;;;;;5100873;28;20222;-78
2021/05/23 10:28:16;;;;;;;0.70;0.70;;;;;;;;;;5077780;28;20199;-77
2021/05/23 10:30:48;;;;;;;1.47;0.80;;;;;;;;;;5075792;28;20227;-77
2021/05/23 10:33:17;;;;;;;0.77;0.77;;;;;;;;;;5076273;28;20202;-77
2021/05/23 10:35:48;;;;;;;1.20;0.83;;;;;;;;;;5066864;28;20207;-78
2021/05/23 10:38:21;;;;;;;1.17;0.67;;;;;;;;;;5060808;28;20203;-78
2021/05/23 10:40:51;;;;;;;1.07;0.70;;;;;;;;;;5073872;28;20226;-77
2021/05/23 10:43:24;;;;;;;0.63;0.63;;;;;;;;;;5078672;28;20636;-76
2021/05/23 10:46:07;;;;;;;2.93;0.70;;;;;;;;;;5098874;28;20322;-76
2021/05/23 10:48:36;;;;;;;0.80;0.70;;;;;;;;;;5067504;28;20269;-78
2021/05/23 10:51:12;;;;;;;2.47;0.80;;;;;;;;;;5072442;28;20230;-77
2021/05/23 10:53:41;;;;;;;1.20;0.97;;;;;;;;;;5054072;28;20217;-76
2021/05/23 10:56:19;;;;;;;3.03;0.90;;;;;;;;;;5079365;28;20198;-77
2021/05/23 10:58:55;;;;;;;0.90;0.73;;;;;;;;;;5066485;28;20226;-76
2021/05/23 11:01:37;;;;;;;1.95;0.70;;;;;;;;;;5053424;28;20695;-77
2021/05/23 11:04:07;;;;;;;0.95;0.70;;;;;;;;;;5055902;28;20206;-77
2021/05/23 11:06:35;;;;;;;0.82;0.82;;;;;;;;;;5074031;28;20572;-77
2021/05/23 11:09:10;;;;;;;0.82;0.80;;;;;;;;;;5075564;28;20231;-76
2021/05/23 11:11:38;;;;;;;1.30;0.98;;;;;;;;;;5079137;28;20675;-75
2021/05/23 11:14:19;;;;;;;3.95;3.10;;;;;;;;;;5079388;28;20206;-77
2021/05/23 11:16:52;;;;;;;4.90;2.97;;;;;;;;;;5071189;28;20703;-76
2021/05/23 11:19:21;;;;;;;1.25;0.70;;;;;;;;;;5083785;28;20237;-76
2021/05/23 11:21:51;;;;;;;1.58;0.70;;;;;;;;;;5082957;28;20225;-75
2021/05/23 11:24:25;;;;;;;2.00;0.73;;;;;;;;;;5080577;28;20209;-76
2021/05/23 11:27:09;;;;;;;1.17;0.60;;;;;;;;;;5058450;28;20209;-77
2021/05/23 11:29:37;;;;;;;2.15;0.82;;;;;;;;;;5075340;28;20222;-74
2021/05/23 11:32:11;;;;;;;1.10;0.90;;;;;;;;;;5078869;28;20206;-77
2021/05/23 11:34:39;;;;;;;0.90;0.80;;;;;;;;;;5087495;28;20190;-77
2021/05/23 11:37:08;;;;;;;2.35;0.90;;;;;;;;;;5080436;28;20207;-77
2021/05/23 11:39:37;;;;;;;1.93;0.90;;;;;;;;;;5083810;28;20237;-77
2021/05/23 11:42:05;;;;;;;1.17;0.80;;;;;;;;;;5064391;28;20209;-76
2021/05/23 11:44:35;;;;;;;0.83;0.70;;;;;;;;;;5079780;28;20212;-76
2021/05/23 11:47:03;;;;;;;1.10;0.97;;;;;;;;;;5085019;28;20202;-77
2021/05/23 11:49:32;;;;;;;1.40;0.70;;;;;;;;;;5065347;28;20218;-77
2021/05/23 11:52:01;;;;;;;1.13;1.00;;;;;;;;;;5085089;28;20205;-77
2021/05/23 11:54:29;;;;;;;1.50;0.97;;;;;;;;;;5083663;28;20671;-76
2021/05/23 11:56:58;;;;;;;1.73;1.00;;;;;;;;;;5078892;28;20687;-77
2021/05/23 11:59:30;;;;;;;1.00;1.00;;;;;;;;;;5074351;28;20738;-76
2021/05/23 12:01:59;;;;;;;1.10;0.95;;;;;;;;;;5077351;28;20225;-76
2021/05/23 12:04:27;;;;;;;1.33;1.00;;;;;;;;;;5072493;28;20206;-77
2021/05/23 12:06:56;;;;;;;1.92;1.02;;;;;;;;;;5084528;28;20210;-76
2021/05/23 12:09:25;;;;;;;1.15;1.02;;;;;;;;;;5077826;28;20594;-76
2021/05/23 12:11:55;;;;;;;1.88;0.90;;;;;;;;;;5063497;28;20557;-74
2021/05/23 12:14:30;;;;;;;2.00;1.02;;;;;;;;;;5093001;28;20206;-76
2021/05/23 12:17:03;;;;;;;1.00;0.93;;;;;;;;;;5070107;28;20281;-76
2021/05/23 12:19:46;;;;;;;1.05;0.90;;;;;;;;;;5079841;28;20229;-76
2021/05/23 12:22:17;;;;;;;3.72;0.80;;;;;;;;;;5071950;28;20209;-76
2021/05/23 12:24:46;;;;;;;1.05;0.90;;;;;;;;;;5077362;28;20597;-76
2021/05/23 12:27:27;;;;;;;2.05;1.00;;;;;;;;;;5076942;28;20205;-76
2021/05/23 12:30:10;;;;;;;1.17;0.90;;;;;;;;;;5072948;28;20244;-76
2021/05/23 12:32:40;;;;;;;1.75;0.98;;;;;;;;;;5070226;28;20202;-76
2021/05/23 12:35:11;;;;;;;1.98;1.00;;;;;;;;;;5066800;28;20215;-76
2021/05/23 12:37:41;;;;;;;2.58;0.85;;;;;;;;;;5060416;28;20211;-76
2021/05/23 12:40:21;;;;;;;2.03;0.70;;;;;;;;;;5075964;28;20223;-76
2021/05/23 12:42:50;;;;;;;1.05;0.88;;;;;;;;;;5052218;28;20199;-76
2021/05/23 12:45:19;;;;;;;0.70;0.70;;;;;;;;;;5075347;28;20203;-75
2021/05/23 12:47:51;;;;;;;1.58;1.00;;;;;;;;;;5065921;28;20687;-75
2021/05/23 12:50:37;;;;;;;0.82;0.80;;;;;;;;;;5054866;28;20238;-76
2021/05/23 12:53:05;;;;;;;3.60;1.00;;;;;;;;;;5066538;28;20217;-76
2021/05/23 12:55:38;;;;;;;2.00;1.00;;;;;;;;;;5085559;28;20209;-76
2021/05/23 12:58:07;;;;;;;0.80;0.80;;;;;;;;;;5070526;28;20598;-76
2021/05/23 13:00:41;;;;;;;1.33;0.80;;;;;;;;;;5060795;28;20231;-76
2021/05/23 13:03:10;;;;;;;0.85;0.70;;;;;;;;;;5074530;28;20206;-76
2021/05/23 13:05:39;;;;;;;0.77;0.55;;;;;;;;;;5058567;28;20217;-76
2021/05/23 13:08:14;;;;;;;0.63;0.63;;;;;;;;;;5071553;28;20205;-76
2021/05/23 13:10:43;;;;;;;0.98;0.80;;;;;;;;;;5067426;28;20233;-76
2021/05/23 13:13:11;;;;;;;0.60;0.60;;;;;;;;;;5050603;28;20568;-76
2021/05/23 13:15:40;;;;;;;1.55;0.90;;;;;;;;;;5059749;28;20206;-76
2021/05/23 13:18:09;;;;;;;2.92;0.98;;;;;;;;;;5078950;28;20219;-76
2021/05/23 13:20:46;;;;;;;0.70;0.70;;;;;;;;;;5073753;28;20237;-76
2021/05/23 13:23:14;;;;;;;0.90;0.75;;;;;;;;;;5050030;28;20203;-76
2021/05/23 13:25:42;;;;;;;1.15;0.90;;;;;;;;;;5079628;28;20199;-76
2021/05/23 13:28:10;;;;;;;0.90;0.80;;;;;;;;;;5067157;28;20206;-76
2021/05/23 13:30:38;;;;;;;0.85;0.80;;;;;;;;;;5072651;28;20233;-77
2021/05/23 13:33:06;;;;;;;1.17;0.90;;;;;;;;;;5049016;28;20213;-76
2021/05/23 13:35:34;;;;;;;1.27;0.88;;;;;;;;;;5071079;28;20588;-76
2021/05/23 13:38:03;;;;;;;0.80;0.80;;;;;;;;;;5063504;28;20207;-76
2021/05/23 13:40:32;;;;;;;1.25;0.82;;;;;;;;;;5069471;28;20674;-76
2021/05/23 13:43:00;;;;;;;1.45;0.80;;;;;;;;;;5072622;28;20549;-77
2021/05/23 13:45:28;;;;;;;1.08;0.93;;;;;;;;;;5064631;28;21679;-76
2021/05/23 13:47:56;;;;;;;0.80;0.80;;;;;;;;;;5073435;28;20218;-76
2021/05/23 13:50:25;;;;;;;1.13;1.08;;;;;;;;;;5070690;28;20226;-77
2021/05/23 13:52:53;;;;;;;0.95;0.90;;;;;;;;;;5044004;28;20214;-76
2021/05/23 13:55:21;;;;;;;1.75;1.00;;;;;;;;;;5076359;28;20206;-76
2021/05/23 13:57:49;;;;;;;0.90;0.75;;;;;;;;;;5064927;28;20203;-76
2021/05/23 14:00:22;;;;;;;1.00;0.90;;;;;;;;;;5072114;28;20230;-76
2021/05/23 14:03:13;;;;;;;1.17;0.90;;;;;;;;;;5081553;28;20219;-76
2021/05/23 14:05:40;;;;;;;2.28;1.20;;;;;;;;;;5063085;28;20270;-76
2021/05/23 14:08:08;;;;;;;1.00;0.90;;;;;;;;;;5076829;28;23048;-75
2021/05/23 14:10:47;;;;;;;1.00;0.90;;;;;;;;;;5075499;28;20249;-76
2021/05/23 14:13:15;;;;;;;1.25;0.95;;;;;;;;;;5066986;28;20213;-76
2021/05/23 14:15:44;;;;;;;1.02;1.00;;;;;;;;;;5081928;28;20213;-76
2021/05/23 14:18:12;;;;;;;1.45;0.98;;;;;;;;;;5099752;28;20206;-76
2021/05/23 14:20:41;;;;;;;1.00;0.90;;;;;;;;;;5057997;28;20230;-77
2021/05/23 14:23:10;;;;;;;0.80;0.80;;;;;;;;;;5082854;28;20207;-76
2021/05/23 14:25:38;;;;;;;1.00;0.90;;;;;;;;;;5073762;28;20190;-76
2021/05/23 14:28:07;;;;;;;1.17;0.68;;;;;;;;;;5092429;28;20202;-76
2021/05/23 14:30:35;;;;;;;1.08;0.70;;;;;;;;;;5073657;28;20222;-77
2021/05/23 14:33:05;;;;;;;1.52;0.82;;;;;;;;;;5060511;28;20660;-76
2021/05/23 14:35:33;;;;;;;1.73;1.30;;;;;;;;;;5077833;28;20202;-76
2021/05/23 14:38:02;;;;;;;0.80;0.80;;;;;;;;;;5079719;28;20228;-76
2021/05/23 14:40:33;;;;;;;0.70;0.70;;;;;;;;;;5060408;28;20587;-77
2021/05/23 14:43:01;;;;;;;5.10;4.20;;;;;;;;;;5081449;28;20650;-77
2021/05/23 14:45:29;;;;;;;1.15;1.05;;;;;;;;;;5060565;28;20210;-77
2021/05/23 14:47:59;;;;;;;0.95;0.88;;;;;;;;;;5058387;28;20596;-77
2021/05/23 14:50:30;;;;;;;0.80;0.80;;;;;;;;;;5078438;28;20219;-76
2021/05/23 14:52:59;;;;;;;1.40;1.15;;;;;;;;;;5059286;28;20194;-76
2021/05/23 14:55:45;;;;;;;1.00;0.90;;;;;;;;;;5084337;28;20201;-76
2021/05/23 14:58:19;;;;;;;1.20;1.00;;;;;;;;;;5070747;28;20569;-76
2021/05/23 15:00:50;;;;;;;3.42;1.33;;;;;;;;;;5083556;28;20590;-77